Firebaugh, CA (93622)

7:13 AM PST on March 01, 2015 (GMT -0800)
APRSWXNET Firebaugh CA US | Change Station
CLOSE
Current Station
Personal Weather Station
Location: Firebaugh, CA
Elevation: 223 ft
Nearby Weather Stations

Elev 223 ft 36.81 °N, 120.53 °W | Updated 31 minutes ago

Partly Cloudy
Partly Cloudy
42 °F
Feels Like 42 °F
N
2
Wind Variable Wind from NW
Gusts 4.0 mph

Today
High -- | Low -- °F
--% Chance of Precip.
Yesterday
High -- | Low -- °F
Precip. -- in
6:33 AM 5:56 PM
Waxing Gibbous, 85% visible
Pressure 29.97 in
Visibility 10.0 miles
Clouds Clear
Windchill 42 °F
Dew Point 40 °F
Humidity 92%
Rainfall 0.05 in
Snow Depth Not available.
UV 0 out of 12
Pollen 5.20 out of 12
Air Quality Not available.
Flu Activity Not available.
METAR KMAE 011453Z AUTO 00000KT 10SM CLR 03/02 A2997 RMK AO2 SLP149 T00280017 52009

More Conditions Fewer Conditions

Pressure 29.97 in
Visibility 10.0 miles
Clouds Clear
Windchill 42 °F
Dew Point 40 °F
Humidity 92%
Rainfall 0.05 in
Snow Depth Not available.
UV 0 out of 12
Pollen 5.20 out of 12
Air Quality Not available.
Flu Activity Not available.
METAR KMAE 011453Z AUTO 00000KT 10SM CLR 03/02 A2997 RMK AO2 SLP149 T00280017 52009

More Conditions Fewer Conditions

10-Day Weather Forecast

Almanac

Astronomy

Mar. 01, 2015 Rise Set
Actual Time
Civil Twilight
Nautical Twilight
Astronomical Twilight
Moon
Length of Visible Light
Length of Day
Tomorrow will be .
, % of the Moon is Illuminated

Today's Extremes

State Highs State Lows

Community

WunderPhotos

Upload Photos

1,801,410 photos uploaded!

WunderBlogs® & News

Nearby

Air Quality

  Air Quality AQ Index Pollutant
Not available.

Snow Depth

Station Depth Elevation

Earthquake Activity

City Distance Mag. Time & Date
Minimum magnitude displayed is 2.5.

Coastal Water Temperatures

Place Temperature

Nearby Weather Stations